地図

経路データ

SID SEASON NUMBER BASIN SUBBASIN NAME ISO_TIME NATURE LAT LON WMO_WIND WMO_PRES WMO_AGENCY TRACK_TYPE DIST2LAND LANDFALL IFLAG USA_AGENCY USA_ATCF_ID USA_LAT USA_LON USA_RECORD USA_STATUS USA_WIND USA_PRES USA_SSHS USA_R34_NE USA_R34_SE USA_R34_SW USA_R34_NW USA_R50_NE USA_R50_SE USA_R50_SW USA_R50_NW USA_R64_NE USA_R64_SE USA_R64_SW USA_R64_NW USA_POCI USA_ROCI USA_RMW USA_EYE TOKYO_LAT TOKYO_LON TOKYO_GRADE TOKYO_WIND TOKYO_PRES TOKYO_R50_DIR TOKYO_R50_LONG TOKYO_R50_SHORT TOKYO_R30_DIR TOKYO_R30_LONG TOKYO_R30_SHORT TOKYO_LAND CMA_LAT CMA_LON CMA_CAT CMA_WIND CMA_PRES HKO_LAT HKO_LON HKO_CAT HKO_WIND HKO_PRES NEWDELHI_LAT NEWDELHI_LON NEWDELHI_GRADE NEWDELHI_WIND NEWDELHI_PRES NEWDELHI_CI NEWDELHI_DP NEWDELHI_POCI REUNION_LAT REUNION_LON REUNION_TYPE REUNION_WIND REUNION_PRES REUNION_TNUM REUNION_CI REUNION_RMW REUNION_R34_NE REUNION_R34_SE REUNION_R34_SW REUNION_R34_NW REUNION_R50_NE REUNION_R50_SE REUNION_R50_SW REUNION_R50_NW REUNION_R64_NE REUNION_R64_SE REUNION_R64_SW REUNION_R64_NW BOM_LAT BOM_LON BOM_TYPE BOM_WIND BOM_PRES BOM_TNUM BOM_CI BOM_RMW BOM_R34_NE BOM_R34_SE BOM_R34_SW BOM_R34_NW BOM_R50_NE BOM_R50_SE BOM_R50_SW BOM_R50_NW BOM_R64_NE BOM_R64_SE BOM_R64_SW BOM_R64_NW BOM_ROCI BOM_POCI BOM_EYE BOM_POS_METHOD BOM_PRES_METHOD NADI_LAT NADI_LON NADI_CAT NADI_WIND NADI_PRES WELLINGTON_LAT WELLINGTON_LON WELLINGTON_WIND WELLINGTON_PRES DS824_LAT DS824_LON DS824_STAGE DS824_WIND DS824_PRES TD9636_LAT TD9636_LON TD9636_STAGE TD9636_WIND TD9636_PRES TD9635_LAT TD9635_LON TD9635_WIND TD9635_PRES TD9635_ROCI NEUMANN_LAT NEUMANN_LON NEUMANN_CLASS NEUMANN_WIND NEUMANN_PRES MLC_LAT MLC_LON MLC_CLASS MLC_WIND MLC_PRES USA_GUST BOM_GUST BOM_GUST_PER REUNION_GUST REUNION_GUST_PER USA_SEAHGT USA_SEARAD_NE USA_SEARAD_SE USA_SEARAD_SW USA_SEARAD_NW STORM_SPEED STORM_DIR
1942214N16121 1942 33 WP MM NOT_NAMED 1942-08-01 12:00:00 NR 16.0000 121.000 main 0 0 __________O___ -1 16.0000 121.000 4 15 263
1942214N16121 1942 33 WP MM NOT_NAMED 1942-08-01 15:00:00 NR 15.9119 120.229 main 0 0 __________P___ -1 15.9119 120.229 4 15 264
1942214N16121 1942 33 WP MM NOT_NAMED 1942-08-01 18:00:00 NR 15.8379 119.476 main 30 30 __________P___ -1 15.8379 119.476 4 14 265
1942214N16121 1942 33 WP MM NOT_NAMED 1942-08-01 21:00:00 NR 15.7948 118.761 main 98 98 __________P___ -1 15.7948 118.761 4 13 268
1942214N16121 1942 33 WP MM NOT_NAMED 1942-08-02 00:00:00 NR 15.8000 118.100 main 172 172 __________O___ -1 15.8000 118.100 4 12 273
1942214N16121 1942 33 WP MM NOT_NAMED 1942-08-02 03:00:00 NR 15.8654 117.504 main 235 235 __________P___ -1 15.8654 117.504 4 11 279
1942214N16121 1942 33 WP MM NOT_NAMED 1942-08-02 06:00:00 NR 15.9809 116.955 main 288 288 __________P___ -1 15.9809 116.955 4 11 284
1942214N16121 1942 33 WP MM NOT_NAMED 1942-08-02 09:00:00 NR 16.1311 116.429 main 352 352 __________P___ -1 16.1311 116.429 4 11 287
1942214N16121 1942 33 WP MM NOT_NAMED 1942-08-02 12:00:00 NR 16.3000 115.900 main 407 407 __________O___ -1 16.3000 115.900 4 11 287
1942214N16121 1942 33 WP MM NOT_NAMED 1942-08-02 15:00:00 NR 16.4564 115.320 main 473 473 __________P___ -1 16.4564 115.320 4 12 286
1942214N16121 1942 33 WP MM NOT_NAMED 1942-08-02 18:00:00 NR 16.6273 114.735 main 508 451 __________P___ -1 16.6273 114.735 4 12 288
1942214N16121 1942 33 WP MM NOT_NAMED 1942-08-02 21:00:00 NR 16.8096 114.157 main 451 384 __________P___ -1 16.8096 114.157 4 12 289
1942214N16121 1942 33 WP MM NOT_NAMED 1942-08-03 00:00:00 NR 17.0000 113.600 main 384 328 __________O___ -1 17.0000 113.600 4 11 290
1942214N16121 1942 33 WP MM NOT_NAMED 1942-08-03 03:00:00 NR 17.1881 113.078 main 328 271 __________P___ -1 17.1881 113.078 4 11 291
1942214N16121 1942 33 WP MM NOT_NAMED 1942-08-03 06:00:00 NR 17.3842 112.577 main 271 215 __________P___ -1 17.3842 112.577 4 10 293
1942214N16121 1942 33 WP MM NOT_NAMED 1942-08-03 09:00:00 NR 17.5882 112.087 main 215 161 __________P___ -1 17.5882 112.087 4 10 294
1942214N16121 1942 33 WP MM NOT_NAMED 1942-08-03 12:00:00 NR 17.8000 111.600 main 161 107 __________O___ -1 17.8000 111.600 4 10 295
1942214N16121 1942 33 WP MM NOT_NAMED 1942-08-03 15:00:00 NR 18.0192 111.107 main 107 59 __________P___ -1 18.0192 111.107 4 10 295
1942214N16121 1942 33 WP MM NOT_NAMED 1942-08-03 18:00:00 NR 18.2437 110.609 main 59 0 __________P___ -1 18.2437 110.609 4 11 295
1942214N16121 1942 33 WP MM NOT_NAMED 1942-08-03 21:00:00 NR 18.4714 110.106 main 0 0 __________P___ -1 18.4714 110.106 4 11 295
1942214N16121 1942 33 WP MM NOT_NAMED 1942-08-04 00:00:00 NR 18.7000 109.600 main 0 __________O___ -1 18.7000 109.600 4 11 296

デジタル台風データ・検索

IBTrACS Databaseについて

本データベースは、米国NOAAが公開する1842年以降の世界の熱帯低気圧のベストトラックデータアーカイブInternational Best Track Archive for Climate Stewardship (IBTrACS)を、ウェブで閲覧しやすい形式に変換したものです。

最終更新日:2021-10-19